sensor_id;sensor_type;location;lat;lon;timestamp;P1;durP1;ratioP1;P2;durP2;ratioP2
27586;SDS011;15019;49.002;8.420;2022-07-06T00:00:50;7.00;;;1.90;;
27586;SDS011;15019;49.002;8.420;2022-07-06T00:03:16;7.90;;;2.10;;
27586;SDS011;15019;49.002;8.420;2022-07-06T00:05:41;3.72;;;1.88;;
27586;SDS011;15019;49.002;8.420;2022-07-06T00:08:06;3.88;;;1.70;;
27586;SDS011;15019;49.002;8.420;2022-07-06T00:10:31;3.60;;;1.80;;
27586;SDS011;15019;49.002;8.420;2022-07-06T00:12:57;4.22;;;1.90;;
27586;SDS011;15019;49.002;8.420;2022-07-06T00:15:22;4.97;;;1.98;;
27586;SDS011;15019;49.002;8.420;2022-07-06T00:17:47;3.25;;;1.67;;
27586;SDS011;15019;49.002;8.420;2022-07-06T00:20:13;4.85;;;2.00;;
27586;SDS011;15019;49.002;8.420;2022-07-06T00:22:38;5.40;;;1.85;;
27586;SDS011;15019;49.002;8.420;2022-07-06T00:25:03;3.25;;;2.08;;
27586;SDS011;15019;49.002;8.420;2022-07-06T00:27:29;4.32;;;2.00;;
27586;SDS011;15019;49.002;8.420;2022-07-06T00:29:55;3.60;;;2.20;;
27586;SDS011;15019;49.002;8.420;2022-07-06T00:32:20;7.55;;;2.05;;
27586;SDS011;15019;49.002;8.420;2022-07-06T00:34:45;2.80;;;2.00;;
27586;SDS011;15019;49.002;8.420;2022-07-06T00:37:11;4.70;;;2.10;;
27586;SDS011;15019;49.002;8.420;2022-07-06T00:39:36;4.03;;;2.20;;
27586;SDS011;15019;49.002;8.420;2022-07-06T00:42:02;5.80;;;1.95;;
27586;SDS011;15019;49.002;8.420;2022-07-06T00:44:27;3.72;;;2.35;;
27586;SDS011;15019;49.002;8.420;2022-07-06T00:46:52;3.40;;;2.20;;
27586;SDS011;15019;49.002;8.420;2022-07-06T00:49:18;5.97;;;2.50;;
27586;SDS011;15019;49.002;8.420;2022-07-06T00:51:43;5.85;;;2.25;;
27586;SDS011;15019;49.002;8.420;2022-07-06T00:54:08;5.95;;;2.40;;
27586;SDS011;15019;49.002;8.420;2022-07-06T00:56:34;7.53;;;2.38;;
27586;SDS011;15019;49.002;8.420;2022-07-06T00:59:00;4.88;;;2.40;;
27586;SDS011;15019;49.002;8.420;2022-07-06T01:01:26;4.03;;;2.50;;
27586;SDS011;15019;49.002;8.420;2022-07-06T01:03:51;6.35;;;2.85;;
27586;SDS011;15019;49.002;8.420;2022-07-06T01:06:17;6.03;;;3.00;;
27586;SDS011;15019;49.002;8.420;2022-07-06T01:08:42;3.95;;;2.95;;
27586;SDS011;15019;49.002;8.420;2022-07-06T01:11:07;4.75;;;2.47;;
27586;SDS011;15019;49.002;8.420;2022-07-06T01:13:33;8.40;;;2.88;;
27586;SDS011;15019;49.002;8.420;2022-07-06T01:15:59;6.00;;;2.60;;
27586;SDS011;15019;49.002;8.420;2022-07-06T01:18:24;5.25;;;2.88;;
27586;SDS011;15019;49.002;8.420;2022-07-06T01:20:50;4.78;;;2.63;;
27586;SDS011;15019;49.002;8.420;2022-07-06T01:23:15;5.07;;;2.92;;
27586;SDS011;15019;49.002;8.420;2022-07-06T01:25:40;5.85;;;3.47;;
27586;SDS011;15019;49.002;8.420;2022-07-06T01:28:05;7.20;;;3.10;;
27586;SDS011;15019;49.002;8.420;2022-07-06T01:30:31;5.47;;;3.00;;
27586;SDS011;15019;49.002;8.420;2022-07-06T01:32:56;6.90;;;3.10;;
27586;SDS011;15019;49.002;8.420;2022-07-06T01:35:22;10.40;;;3.00;;
27586;SDS011;15019;49.002;8.420;2022-07-06T01:37:49;5.80;;;3.13;;
27586;SDS011;15019;49.002;8.420;2022-07-06T01:40:14;5.47;;;3.20;;
27586;SDS011;15019;49.002;8.420;2022-07-06T01:42:40;9.10;;;3.20;;
27586;SDS011;15019;49.002;8.420;2022-07-06T01:45:05;7.18;;;3.00;;
27586;SDS011;15019;49.002;8.420;2022-07-06T01:47:32;7.07;;;3.05;;
27586;SDS011;15019;49.002;8.420;2022-07-06T01:50:02;7.80;;;3.10;;
27586;SDS011;15019;49.002;8.420;2022-07-06T01:52:30;7.85;;;3.10;;
27586;SDS011;15019;49.002;8.420;2022-07-06T01:54:56;4.43;;;3.08;;
27586;SDS011;15019;49.002;8.420;2022-07-06T01:57:22;7.40;;;2.80;;
27586;SDS011;15019;49.002;8.420;2022-07-06T01:59:47;5.82;;;2.92;;
27586;SDS011;15019;49.002;8.420;2022-07-06T02:02:12;6.63;;;2.90;;
27586;SDS011;15019;49.002;8.420;2022-07-06T02:04:38;8.30;;;3.15;;
27586;SDS011;15019;49.002;8.420;2022-07-06T02:07:03;4.45;;;2.63;;
27586;SDS011;15019;49.002;8.420;2022-07-06T02:09:28;5.78;;;2.90;;
27586;SDS011;15019;49.002;8.420;2022-07-06T02:11:54;5.60;;;3.20;;
27586;SDS011;15019;49.002;8.420;2022-07-06T02:14:19;5.57;;;3.10;;
27586;SDS011;15019;49.002;8.420;2022-07-06T02:16:45;7.10;;;3.00;;
27586;SDS011;15019;49.002;8.420;2022-07-06T02:19:10;4.88;;;3.08;;
27586;SDS011;15019;49.002;8.420;2022-07-06T02:21:35;6.88;;;2.92;;
27586;SDS011;15019;49.002;8.420;2022-07-06T02:24:01;4.15;;;2.88;;
27586;SDS011;15019;49.002;8.420;2022-07-06T02:26:26;8.68;;;2.83;;
27586;SDS011;15019;49.002;8.420;2022-07-06T02:28:51;7.25;;;2.90;;
27586;SDS011;15019;49.002;8.420;2022-07-06T02:31:16;5.15;;;3.10;;
27586;SDS011;15019;49.002;8.420;2022-07-06T02:33:42;9.20;;;3.05;;
27586;SDS011;15019;49.002;8.420;2022-07-06T02:36:07;8.60;;;3.05;;
27586;SDS011;15019;49.002;8.420;2022-07-06T02:38:33;8.52;;;3.05;;
27586;SDS011;15019;49.002;8.420;2022-07-06T02:40:59;6.65;;;3.28;;
27586;SDS011;15019;49.002;8.420;2022-07-06T02:43:24;7.65;;;3.05;;
27586;SDS011;15019;49.002;8.420;2022-07-06T02:45:49;8.95;;;3.20;;
27586;SDS011;15019;49.002;8.420;2022-07-06T02:48:15;5.78;;;3.00;;
27586;SDS011;15019;49.002;8.420;2022-07-06T02:50:40;6.03;;;2.80;;
27586;SDS011;15019;49.002;8.420;2022-07-06T02:53:05;8.18;;;2.90;;
27586;SDS011;15019;49.002;8.420;2022-07-06T02:55:31;6.93;;;3.42;;
27586;SDS011;15019;49.002;8.420;2022-07-06T02:57:56;8.05;;;3.30;;
27586;SDS011;15019;49.002;8.420;2022-07-06T03:00:22;8.45;;;3.33;;
27586;SDS011;15019;49.002;8.420;2022-07-06T03:02:47;4.88;;;3.05;;
27586;SDS011;15019;49.002;8.420;2022-07-06T03:05:12;7.30;;;3.30;;
27586;SDS011;15019;49.002;8.420;2022-07-06T03:07:38;9.10;;;3.00;;
27586;SDS011;15019;49.002;8.420;2022-07-06T03:10:05;5.95;;;3.25;;
27586;SDS011;15019;49.002;8.420;2022-07-06T03:12:30;5.20;;;2.83;;
27586;SDS011;15019;49.002;8.420;2022-07-06T03:14:55;5.78;;;3.03;;
27586;SDS011;15019;49.002;8.420;2022-07-06T03:17:21;6.95;;;3.58;;
27586;SDS011;15019;49.002;8.420;2022-07-06T03:19:46;6.70;;;3.75;;
27586;SDS011;15019;49.002;8.420;2022-07-06T03:22:11;6.45;;;3.42;;
27586;SDS011;15019;49.002;8.420;2022-07-06T03:24:37;7.75;;;3.90;;
27586;SDS011;15019;49.002;8.420;2022-07-06T03:27:02;5.82;;;3.35;;
27586;SDS011;15019;49.002;8.420;2022-07-06T03:29:28;7.93;;;3.78;;
27586;SDS011;15019;49.002;8.420;2022-07-06T03:31:53;6.88;;;3.60;;
27586;SDS011;15019;49.002;8.420;2022-07-06T03:34:18;8.13;;;3.97;;
27586;SDS011;15019;49.002;8.420;2022-07-06T03:36:44;6.07;;;3.60;;
27586;SDS011;15019;49.002;8.420;2022-07-06T03:39:09;6.63;;;3.88;;
27586;SDS011;15019;49.002;8.420;2022-07-06T03:41:34;9.60;;;4.00;;
27586;SDS011;15019;49.002;8.420;2022-07-06T03:44:00;7.00;;;3.83;;
27586;SDS011;15019;49.002;8.420;2022-07-06T03:46:25;10.15;;;4.50;;
27586;SDS011;15019;49.002;8.420;2022-07-06T03:48:50;5.32;;;3.90;;
27586;SDS011;15019;49.002;8.420;2022-07-06T03:51:16;11.75;;;4.40;;
27586;SDS011;15019;49.002;8.420;2022-07-06T03:53:41;7.10;;;4.22;;
27586;SDS011;15019;49.002;8.420;2022-07-06T03:56:07;6.32;;;3.88;;
27586;SDS011;15019;49.002;8.420;2022-07-06T03:58:32;6.80;;;4.10;;
27586;SDS011;15019;49.002;8.420;2022-07-06T04:00:58;8.07;;;3.80;;
27586;SDS011;15019;49.002;8.420;2022-07-06T04:03:23;7.55;;;3.80;;
27586;SDS011;15019;49.002;8.420;2022-07-06T04:05:49;8.70;;;4.10;;
27586;SDS011;15019;49.002;8.420;2022-07-06T04:08:14;8.10;;;3.95;;
27586;SDS011;15019;49.002;8.420;2022-07-06T04:10:39;8.75;;;5.53;;
27586;SDS011;15019;49.002;8.420;2022-07-06T04:13:05;7.00;;;3.63;;
27586;SDS011;15019;49.002;8.420;2022-07-06T04:15:30;5.78;;;3.70;;
27586;SDS011;15019;49.002;8.420;2022-07-06T04:17:55;5.65;;;3.00;;
27586;SDS011;15019;49.002;8.420;2022-07-06T04:20:21;7.63;;;2.50;;
27586;SDS011;15019;49.002;8.420;2022-07-06T04:22:47;5.30;;;2.47;;
27586;SDS011;15019;49.002;8.420;2022-07-06T04:25:13;9.43;;;2.58;;
27586;SDS011;15019;49.002;8.420;2022-07-06T04:27:39;6.00;;;2.42;;
27586;SDS011;15019;49.002;8.420;2022-07-06T04:30:05;3.83;;;2.20;;
27586;SDS011;15019;49.002;8.420;2022-07-06T04:32:32;4.28;;;2.35;;
27586;SDS011;15019;49.002;8.420;2022-07-06T04:34:57;4.05;;;2.17;;
27586;SDS011;15019;49.002;8.420;2022-07-06T04:37:23;3.97;;;2.42;;
27586;SDS011;15019;49.002;8.420;2022-07-06T04:39:48;7.45;;;2.60;;
27586;SDS011;15019;49.002;8.420;2022-07-06T04:42:14;4.93;;;2.38;;
27586;SDS011;15019;49.002;8.420;2022-07-06T04:44:39;6.55;;;2.42;;
27586;SDS011;15019;49.002;8.420;2022-07-06T04:47:04;7.75;;;2.30;;
27586;SDS011;15019;49.002;8.420;2022-07-06T04:49:30;5.65;;;2.20;;
27586;SDS011;15019;49.002;8.420;2022-07-06T04:51:55;5.07;;;2.28;;
27586;SDS011;15019;49.002;8.420;2022-07-06T04:54:20;6.25;;;2.40;;
27586;SDS011;15019;49.002;8.420;2022-07-06T04:56:46;4.18;;;2.30;;
27586;SDS011;15019;49.002;8.420;2022-07-06T04:59:11;5.90;;;2.38;;
27586;SDS011;15019;49.002;8.420;2022-07-06T05:01:37;5.07;;;2.20;;
27586;SDS011;15019;49.002;8.420;2022-07-06T05:04:02;6.78;;;2.70;;
27586;SDS011;15019;49.002;8.420;2022-07-06T05:06:27;6.30;;;2.25;;
27586;SDS011;15019;49.002;8.420;2022-07-06T05:08:53;4.25;;;2.08;;
27586;SDS011;15019;49.002;8.420;2022-07-06T05:11:18;5.97;;;2.42;;
27586;SDS011;15019;49.002;8.420;2022-07-06T05:13:43;4.55;;;2.60;;
27586;SDS011;15019;49.002;8.420;2022-07-06T05:16:09;5.10;;;2.22;;
27586;SDS011;15019;49.002;8.420;2022-07-06T05:18:34;6.35;;;2.22;;
27586;SDS011;15019;49.002;8.420;2022-07-06T05:21:00;10.48;;;2.30;;
27586;SDS011;15019;49.002;8.420;2022-07-06T05:23:25;5.82;;;2.58;;
27586;SDS011;15019;49.002;8.420;2022-07-06T05:25:50;5.82;;;2.08;;
27586;SDS011;15019;49.002;8.420;2022-07-06T05:28:16;5.63;;;2.20;;
27586;SDS011;15019;49.002;8.420;2022-07-06T05:30:41;3.40;;;1.95;;
27586;SDS011;15019;49.002;8.420;2022-07-06T05:33:06;5.95;;;2.33;;
27586;SDS011;15019;49.002;8.420;2022-07-06T05:35:32;6.38;;;2.42;;
27586;SDS011;15019;49.002;8.420;2022-07-06T05:37:57;8.55;;;2.25;;
27586;SDS011;15019;49.002;8.420;2022-07-06T05:40:22;4.18;;;2.20;;
27586;SDS011;15019;49.002;8.420;2022-07-06T05:42:48;4.32;;;2.10;;
27586;SDS011;15019;49.002;8.420;2022-07-06T05:45:13;6.47;;;2.30;;
27586;SDS011;15019;49.002;8.420;2022-07-06T05:47:38;8.98;;;2.28;;
27586;SDS011;15019;49.002;8.420;2022-07-06T05:50:04;5.60;;;2.60;;
27586;SDS011;15019;49.002;8.420;2022-07-06T05:52:30;5.80;;;1.90;;
27586;SDS011;15019;49.002;8.420;2022-07-06T05:54:55;5.50;;;2.00;;
27586;SDS011;15019;49.002;8.420;2022-07-06T05:57:20;5.35;;;2.08;;
27586;SDS011;15019;49.002;8.420;2022-07-06T05:59:45;6.43;;;2.42;;
27586;SDS011;15019;49.002;8.420;2022-07-06T06:02:11;8.65;;;2.20;;
27586;SDS011;15019;49.002;8.420;2022-07-06T06:04:36;5.85;;;2.10;;
27586;SDS011;15019;49.002;8.420;2022-07-06T06:07:01;5.20;;;2.22;;
27586;SDS011;15019;49.002;8.420;2022-07-06T06:09:27;4.00;;;2.38;;
27586;SDS011;15019;49.002;8.420;2022-07-06T06:11:52;9.10;;;2.42;;
27586;SDS011;15019;49.002;8.420;2022-07-06T06:14:17;6.90;;;2.28;;
27586;SDS011;15019;49.002;8.420;2022-07-06T06:16:43;9.52;;;2.58;;
27586;SDS011;15019;49.002;8.420;2022-07-06T06:19:08;6.32;;;2.83;;
27586;SDS011;15019;49.002;8.420;2022-07-06T06:21:33;8.55;;;2.30;;
27586;SDS011;15019;49.002;8.420;2022-07-06T06:23:59;5.60;;;2.70;;
27586;SDS011;15019;49.002;8.420;2022-07-06T06:26:24;6.72;;;2.42;;
27586;SDS011;15019;49.002;8.420;2022-07-06T06:28:49;5.90;;;2.42;;
27586;SDS011;15019;49.002;8.420;2022-07-06T06:31:14;4.68;;;2.45;;
27586;SDS011;15019;49.002;8.420;2022-07-06T06:33:40;5.85;;;2.53;;
27586;SDS011;15019;49.002;8.420;2022-07-06T06:36:05;15.00;;;3.15;;
27586;SDS011;15019;49.002;8.420;2022-07-06T06:38:31;17.27;;;3.17;;
27586;SDS011;15019;49.002;8.420;2022-07-06T06:40:56;16.33;;;3.47;;
27586;SDS011;15019;49.002;8.420;2022-07-06T06:43:21;4.95;;;2.22;;
27586;SDS011;15019;49.002;8.420;2022-07-06T06:45:47;7.88;;;2.40;;
27586;SDS011;15019;49.002;8.420;2022-07-06T06:48:12;6.40;;;2.45;;
27586;SDS011;15019;49.002;8.420;2022-07-06T06:50:37;7.05;;;2.75;;
27586;SDS011;15019;49.002;8.420;2022-07-06T06:53:03;8.35;;;2.75;;
27586;SDS011;15019;49.002;8.420;2022-07-06T06:55:28;7.25;;;2.40;;
27586;SDS011;15019;49.002;8.420;2022-07-06T06:57:53;4.85;;;2.10;;
27586;SDS011;15019;49.002;8.420;2022-07-06T07:00:19;6.20;;;2.45;;
27586;SDS011;15019;49.002;8.420;2022-07-06T07:02:44;7.78;;;2.75;;
27586;SDS011;15019;49.002;8.420;2022-07-06T07:05:10;6.03;;;2.40;;
27586;SDS011;15019;49.002;8.420;2022-07-06T07:07:35;11.30;;;2.40;;
27586;SDS011;15019;49.002;8.420;2022-07-06T07:10:00;10.15;;;3.00;;
27586;SDS011;15019;49.002;8.420;2022-07-06T07:12:26;4.63;;;2.60;;
27586;SDS011;15019;49.002;8.420;2022-07-06T07:14:51;5.40;;;2.70;;
27586;SDS011;15019;49.002;8.420;2022-07-06T07:17:17;5.07;;;2.30;;
27586;SDS011;15019;49.002;8.420;2022-07-06T07:19:42;12.95;;;3.58;;
27586;SDS011;15019;49.002;8.420;2022-07-06T07:22:07;6.03;;;2.38;;
27586;SDS011;15019;49.002;8.420;2022-07-06T07:24:33;5.75;;;2.47;;
27586;SDS011;15019;49.002;8.420;2022-07-06T07:26:58;7.22;;;2.20;;
27586;SDS011;15019;49.002;8.420;2022-07-06T07:29:24;6.82;;;2.65;;
27586;SDS011;15019;49.002;8.420;2022-07-06T07:31:49;8.27;;;2.45;;
27586;SDS011;15019;49.002;8.420;2022-07-06T07:34:14;6.90;;;2.22;;
27586;SDS011;15019;49.002;8.420;2022-07-06T07:36:40;7.20;;;2.10;;
27586;SDS011;15019;49.002;8.420;2022-07-06T07:39:06;7.35;;;2.45;;
27586;SDS011;15019;49.002;8.420;2022-07-06T07:41:31;5.95;;;2.50;;
27586;SDS011;15019;49.002;8.420;2022-07-06T07:43:57;6.32;;;2.22;;
27586;SDS011;15019;49.002;8.420;2022-07-06T07:46:22;4.25;;;2.15;;
27586;SDS011;15019;49.002;8.420;2022-07-06T07:48:48;7.55;;;2.20;;
27586;SDS011;15019;49.002;8.420;2022-07-06T07:51:13;6.82;;;2.38;;
27586;SDS011;15019;49.002;8.420;2022-07-06T07:53:39;12.95;;;3.33;;
27586;SDS011;15019;49.002;8.420;2022-07-06T07:56:05;5.55;;;2.25;;
27586;SDS011;15019;49.002;8.420;2022-07-06T07:58:31;9.38;;;2.45;;
27586;SDS011;15019;49.002;8.420;2022-07-06T08:00:56;9.98;;;2.20;;
27586;SDS011;15019;49.002;8.420;2022-07-06T08:03:21;5.60;;;2.50;;
27586;SDS011;15019;49.002;8.420;2022-07-06T08:05:47;8.65;;;2.53;;
27586;SDS011;15019;49.002;8.420;2022-07-06T08:08:12;6.78;;;2.75;;
27586;SDS011;15019;49.002;8.420;2022-07-06T08:10:38;6.97;;;2.47;;
27586;SDS011;15019;49.002;8.420;2022-07-06T08:13:03;12.13;;;2.60;;
27586;SDS011;15019;49.002;8.420;2022-07-06T08:15:28;7.35;;;2.40;;
27586;SDS011;15019;49.002;8.420;2022-07-06T08:17:54;8.10;;;2.75;;
27586;SDS011;15019;49.002;8.420;2022-07-06T08:20:19;7.32;;;2.50;;
27586;SDS011;15019;49.002;8.420;2022-07-06T08:22:44;10.00;;;2.55;;
27586;SDS011;15019;49.002;8.420;2022-07-06T08:25:10;7.40;;;2.55;;
27586;SDS011;15019;49.002;8.420;2022-07-06T08:27:35;6.22;;;2.65;;
27586;SDS011;15019;49.002;8.420;2022-07-06T08:30:02;13.73;;;3.33;;
27586;SDS011;15019;49.002;8.420;2022-07-06T08:32:29;5.47;;;2.53;;
27586;SDS011;15019;49.002;8.420;2022-07-06T08:34:54;8.60;;;2.95;;
27586;SDS011;15019;49.002;8.420;2022-07-06T08:37:19;7.85;;;2.75;;
27586;SDS011;15019;49.002;8.420;2022-07-06T08:39:45;7.53;;;2.38;;
27586;SDS011;15019;49.002;8.420;2022-07-06T08:42:10;8.25;;;2.42;;
27586;SDS011;15019;49.002;8.420;2022-07-06T08:44:37;5.72;;;2.38;;
27586;SDS011;15019;49.002;8.420;2022-07-06T08:47:04;8.52;;;2.40;;
27586;SDS011;15019;49.002;8.420;2022-07-06T08:49:30;9.45;;;2.97;;
27586;SDS011;15019;49.002;8.420;2022-07-06T08:51:57;5.78;;;2.75;;
27586;SDS011;15019;49.002;8.420;2022-07-06T08:54:23;6.72;;;2.95;;
27586;SDS011;15019;49.002;8.420;2022-07-06T08:56:49;7.95;;;2.60;;
27586;SDS011;15019;49.002;8.420;2022-07-06T08:59:15;7.43;;;2.55;;
27586;SDS011;15019;49.002;8.420;2022-07-06T09:01:41;6.85;;;2.72;;
27586;SDS011;15019;49.002;8.420;2022-07-06T09:04:08;9.05;;;2.70;;
27586;SDS011;15019;49.002;8.420;2022-07-06T09:06:34;6.55;;;2.50;;
27586;SDS011;15019;49.002;8.420;2022-07-06T09:09:00;4.57;;;2.28;;
27586;SDS011;15019;49.002;8.420;2022-07-06T09:11:29;9.05;;;2.50;;
27586;SDS011;15019;49.002;8.420;2022-07-06T09:13:55;7.40;;;2.47;;
27586;SDS011;15019;49.002;8.420;2022-07-06T09:16:25;6.93;;;2.70;;
27586;SDS011;15019;49.002;8.420;2022-07-06T09:18:52;5.28;;;2.65;;
27586;SDS011;15019;49.002;8.420;2022-07-06T09:21:25;7.53;;;2.35;;
27586;SDS011;15019;49.002;8.420;2022-07-06T09:23:55;6.57;;;2.78;;
27586;SDS011;15019;49.002;8.420;2022-07-06T09:26:22;5.13;;;2.40;;
27586;SDS011;15019;49.002;8.420;2022-07-06T09:28:48;8.45;;;2.10;;
27586;SDS011;15019;49.002;8.420;2022-07-06T09:31:14;7.38;;;2.70;;
27586;SDS011;15019;49.002;8.420;2022-07-06T09:33:39;7.95;;;2.70;;
27586;SDS011;15019;49.002;8.420;2022-07-06T09:36:19;6.63;;;2.72;;
27586;SDS011;15019;49.002;8.420;2022-07-06T09:39:14;8.75;;;3.00;;
27586;SDS011;15019;49.002;8.420;2022-07-06T09:41:50;7.28;;;2.53;;
27586;SDS011;15019;49.002;8.420;2022-07-06T09:44:24;8.00;;;2.72;;
27586;SDS011;15019;49.002;8.420;2022-07-06T09:47:01;8.07;;;2.55;;
27586;SDS011;15019;49.002;8.420;2022-07-06T09:49:28;10.88;;;2.40;;
27586;SDS011;15019;49.002;8.420;2022-07-06T09:51:57;4.78;;;2.30;;
27586;SDS011;15019;49.002;8.420;2022-07-06T09:54:25;5.43;;;2.17;;
27586;SDS011;15019;49.002;8.420;2022-07-06T09:56:51;11.20;;;2.75;;
27586;SDS011;15019;49.002;8.420;2022-07-06T09:59:25;7.70;;;2.10;;
27586;SDS011;15019;49.002;8.420;2022-07-06T10:01:52;15.05;;;2.30;;
27586;SDS011;15019;49.002;8.420;2022-07-06T10:04:19;6.43;;;2.30;;
27586;SDS011;15019;49.002;8.420;2022-07-06T10:06:45;6.95;;;2.25;;
27586;SDS011;15019;49.002;8.420;2022-07-06T10:09:11;7.40;;;2.50;;
27586;SDS011;15019;49.002;8.420;2022-07-06T10:11:38;6.00;;;2.20;;
27586;SDS011;15019;49.002;8.420;2022-07-06T10:14:12;7.45;;;2.20;;
27586;SDS011;15019;49.002;8.420;2022-07-06T10:16:42;7.90;;;2.03;;
27586;SDS011;15019;49.002;8.420;2022-07-06T10:19:08;7.45;;;2.42;;
27586;SDS011;15019;49.002;8.420;2022-07-06T10:21:38;7.35;;;2.50;;
27586;SDS011;15019;49.002;8.420;2022-07-06T10:24:05;7.55;;;2.45;;
27586;SDS011;15019;49.002;8.420;2022-07-06T10:26:31;8.38;;;2.33;;
27586;SDS011;15019;49.002;8.420;2022-07-06T10:28:58;5.63;;;2.08;;
27586;SDS011;15019;49.002;8.420;2022-07-06T10:31:23;5.18;;;2.10;;
27586;SDS011;15019;49.002;8.420;2022-07-06T10:33:50;4.53;;;2.08;;
27586;SDS011;15019;49.002;8.420;2022-07-06T10:36:16;6.95;;;2.42;;
27586;SDS011;15019;49.002;8.420;2022-07-06T10:38:42;5.82;;;2.40;;
27586;SDS011;15019;49.002;8.420;2022-07-06T10:41:14;4.20;;;1.98;;
27586;SDS011;15019;49.002;8.420;2022-07-06T10:43:45;6.93;;;2.00;;
27586;SDS011;15019;49.002;8.420;2022-07-06T10:46:12;6.53;;;2.00;;
27586;SDS011;15019;49.002;8.420;2022-07-06T10:48:40;6.57;;;2.20;;
27586;SDS011;15019;49.002;8.420;2022-07-06T10:51:11;5.72;;;2.10;;
27586;SDS011;15019;49.002;8.420;2022-07-06T10:53:38;5.57;;;2.20;;
27586;SDS011;15019;49.002;8.420;2022-07-06T10:56:08;6.05;;;2.10;;
27586;SDS011;15019;49.002;8.420;2022-07-06T10:58:39;8.23;;;2.10;;
27586;SDS011;15019;49.002;8.420;2022-07-06T11:01:05;9.75;;;2.10;;
27586;SDS011;15019;49.002;8.420;2022-07-06T11:03:32;7.15;;;2.45;;
27586;SDS011;15019;49.002;8.420;2022-07-06T11:05:59;5.78;;;2.08;;
27586;SDS011;15019;49.002;8.420;2022-07-06T11:11:15;6.38;;;2.25;;
27586;SDS011;15019;49.002;8.420;2022-07-06T11:13:47;8.63;;;2.60;;
27586;SDS011;15019;49.002;8.420;2022-07-06T11:16:14;7.68;;;2.38;;
27586;SDS011;15019;49.002;8.420;2022-07-06T11:18:40;4.00;;;1.83;;
27586;SDS011;15019;49.002;8.420;2022-07-06T11:21:14;7.20;;;2.08;;
27586;SDS011;15019;49.002;8.420;2022-07-06T11:23:40;5.47;;;2.13;;
27586;SDS011;15019;49.002;8.420;2022-07-06T11:26:05;6.80;;;2.00;;
27586;SDS011;15019;49.002;8.420;2022-07-06T11:28:31;4.78;;;2.03;;
27586;SDS011;15019;49.002;8.420;2022-07-06T11:30:57;6.65;;;2.75;;
27586;SDS011;15019;49.002;8.420;2022-07-06T11:33:28;5.07;;;2.17;;
27586;SDS011;15019;49.002;8.420;2022-07-06T11:38:40;6.85;;;2.20;;
27586;SDS011;15019;49.002;8.420;2022-07-06T11:41:06;5.60;;;2.08;;
27586;SDS011;15019;49.002;8.420;2022-07-06T11:43:32;5.45;;;1.90;;
27586;SDS011;15019;49.002;8.420;2022-07-06T11:45:58;7.05;;;2.00;;
27586;SDS011;15019;49.002;8.420;2022-07-06T11:48:23;4.65;;;2.10;;
27586;SDS011;15019;49.002;8.420;2022-07-06T11:50:58;5.18;;;2.20;;
27586;SDS011;15019;49.002;8.420;2022-07-06T11:53:27;4.78;;;2.10;;
27586;SDS011;15019;49.002;8.420;2022-07-06T11:55:53;6.38;;;1.73;;
27586;SDS011;15019;49.002;8.420;2022-07-06T11:58:20;6.00;;;2.13;;
27586;SDS011;15019;49.002;8.420;2022-07-06T12:01:02;5.50;;;1.80;;
27586;SDS011;15019;49.002;8.420;2022-07-06T12:03:36;10.65;;;2.13;;
27586;SDS011;15019;49.002;8.420;2022-07-06T12:06:06;10.13;;;2.05;;
27586;SDS011;15019;49.002;8.420;2022-07-06T12:08:56;6.15;;;2.15;;
27586;SDS011;15019;49.002;8.420;2022-07-06T12:11:27;6.22;;;2.22;;
27586;SDS011;15019;49.002;8.420;2022-07-06T12:13:54;4.85;;;2.05;;
27586;SDS011;15019;49.002;8.420;2022-07-06T12:18:53;8.85;;;2.10;;
27586;SDS011;15019;49.002;8.420;2022-07-06T12:21:18;5.50;;;1.77;;
27586;SDS011;15019;49.002;8.420;2022-07-06T12:23:45;9.10;;;2.13;;
27586;SDS011;15019;49.002;8.420;2022-07-06T12:26:15;5.72;;;2.05;;
27586;SDS011;15019;49.002;8.420;2022-07-06T12:28:43;10.60;;;2.42;;
27586;SDS011;15019;49.002;8.420;2022-07-06T12:31:09;6.97;;;2.10;;
27586;SDS011;15019;49.002;8.420;2022-07-06T12:33:35;6.32;;;1.90;;
27586;SDS011;15019;49.002;8.420;2022-07-06T12:36:11;8.88;;;1.83;;
27586;SDS011;15019;49.002;8.420;2022-07-06T12:38:43;7.18;;;2.33;;
27586;SDS011;15019;49.002;8.420;2022-07-06T12:41:09;4.50;;;1.77;;
27586;SDS011;15019;49.002;8.420;2022-07-06T12:43:39;5.43;;;1.90;;
27586;SDS011;15019;49.002;8.420;2022-07-06T12:48:53;6.43;;;1.90;;
27586;SDS011;15019;49.002;8.420;2022-07-06T12:51:20;9.48;;;2.30;;
27586;SDS011;15019;49.002;8.420;2022-07-06T12:53:45;8.48;;;2.00;;
27586;SDS011;15019;49.002;8.420;2022-07-06T12:56:11;3.05;;;1.90;;
27586;SDS011;15019;49.002;8.420;2022-07-06T12:58:38;3.17;;;1.70;;
27586;SDS011;15019;49.002;8.420;2022-07-06T13:01:03;6.40;;;1.83;;
27586;SDS011;15019;49.002;8.420;2022-07-06T13:03:37;8.25;;;2.03;;
27586;SDS011;15019;49.002;8.420;2022-07-06T13:06:03;8.57;;;1.80;;
27586;SDS011;15019;49.002;8.420;2022-07-06T13:08:30;6.47;;;1.80;;
27586;SDS011;15019;49.002;8.420;2022-07-06T13:10:55;5.70;;;1.80;;
27586;SDS011;15019;49.002;8.420;2022-07-06T13:13:20;5.57;;;1.80;;
27586;SDS011;15019;49.002;8.420;2022-07-06T13:15:45;7.00;;;1.63;;
27586;SDS011;15019;49.002;8.420;2022-07-06T13:18:11;3.38;;;1.80;;
27586;SDS011;15019;49.002;8.420;2022-07-06T13:20:36;6.38;;;1.67;;
27586;SDS011;15019;49.002;8.420;2022-07-06T13:23:01;3.20;;;1.50;;
27586;SDS011;15019;49.002;8.420;2022-07-06T13:25:27;6.10;;;1.80;;
27586;SDS011;15019;49.002;8.420;2022-07-06T13:27:52;6.25;;;1.70;;
27586;SDS011;15019;49.002;8.420;2022-07-06T13:30:17;5.10;;;1.80;;
27586;SDS011;15019;49.002;8.420;2022-07-06T13:32:43;3.35;;;1.60;;
27586;SDS011;15019;49.002;8.420;2022-07-06T13:35:08;3.28;;;1.58;;
27586;SDS011;15019;49.002;8.420;2022-07-06T13:37:33;3.53;;;1.70;;
27586;SDS011;15019;49.002;8.420;2022-07-06T13:39:59;5.05;;;1.52;;
27586;SDS011;15019;49.002;8.420;2022-07-06T13:42:24;3.10;;;1.40;;
27586;SDS011;15019;49.002;8.420;2022-07-06T13:44:49;4.00;;;1.70;;
27586;SDS011;15019;49.002;8.420;2022-07-06T13:47:15;3.85;;;1.58;;
27586;SDS011;15019;49.002;8.420;2022-07-06T13:49:40;2.78;;;1.58;;
27586;SDS011;15019;49.002;8.420;2022-07-06T13:52:05;3.08;;;1.50;;
27586;SDS011;15019;49.002;8.420;2022-07-06T13:54:31;3.35;;;1.35;;
27586;SDS011;15019;49.002;8.420;2022-07-06T13:56:57;1.77;;;1.30;;
27586;SDS011;15019;49.002;8.420;2022-07-06T13:59:22;4.28;;;1.50;;
27586;SDS011;15019;49.002;8.420;2022-07-06T14:01:48;2.15;;;1.23;;
27586;SDS011;15019;49.002;8.420;2022-07-06T14:04:13;3.22;;;1.33;;
27586;SDS011;15019;49.002;8.420;2022-07-06T14:06:38;6.60;;;1.60;;
27586;SDS011;15019;49.002;8.420;2022-07-06T14:09:05;3.17;;;1.52;;
27586;SDS011;15019;49.002;8.420;2022-07-06T14:11:30;5.40;;;1.50;;
27586;SDS011;15019;49.002;8.420;2022-07-06T14:13:56;3.40;;;1.48;;
27586;SDS011;15019;49.002;8.420;2022-07-06T14:16:21;3.00;;;1.20;;
27586;SDS011;15019;49.002;8.420;2022-07-06T14:18:47;3.83;;;1.30;;
27586;SDS011;15019;49.002;8.420;2022-07-06T14:21:13;3.80;;;1.55;;
27586;SDS011;15019;49.002;8.420;2022-07-06T14:23:38;2.20;;;1.27;;
27586;SDS011;15019;49.002;8.420;2022-07-06T14:26:03;3.35;;;1.17;;
27586;SDS011;15019;49.002;8.420;2022-07-06T14:28:29;2.72;;;1.30;;
27586;SDS011;15019;49.002;8.420;2022-07-06T14:30:55;3.55;;;1.30;;
27586;SDS011;15019;49.002;8.420;2022-07-06T14:33:20;2.83;;;1.55;;
27586;SDS011;15019;49.002;8.420;2022-07-06T14:35:47;5.50;;;1.60;;
27586;SDS011;15019;49.002;8.420;2022-07-06T14:38:14;6.70;;;1.60;;
27586;SDS011;15019;49.002;8.420;2022-07-06T14:40:40;3.80;;;1.50;;
27586;SDS011;15019;49.002;8.420;2022-07-06T14:43:05;3.15;;;1.60;;
27586;SDS011;15019;49.002;8.420;2022-07-06T14:45:31;5.22;;;1.60;;
27586;SDS011;15019;49.002;8.420;2022-07-06T14:47:57;5.45;;;1.38;;
27586;SDS011;15019;49.002;8.420;2022-07-06T14:50:22;3.72;;;1.40;;
27586;SDS011;15019;49.002;8.420;2022-07-06T14:52:48;4.50;;;1.58;;